UAL1054 KSFO-KLAX
Flight info
| Callsign | UAL1054 |
|---|---|
| Flight time | 1h 1m |
| Altitude | 33000 |
| Route | WESLA5 SUSEY EBAYE BURGL IRNMN2 |
| Aircraft | B739/M-SDE2E3FGHIRWXY/LB1 |
Departure
| Time | 2026-04-20 03:01 |
|---|---|
| Airport | San Francisco International Airport (KSFO) |
Arrival
| Time | 2026-04-20 04:02 |
|---|---|
| Airport | Los Angeles International Airport (KLAX) |
| Time | Latitude | Longitude | Altitude | Speed | Heading |
|---|---|---|---|---|---|
| 2026-04-20 02:37 | 37.61552 | -122.38271 | 19 ft | 0 kts | 217° |
| 2026-04-20 02:38 | 37.61553 | -122.38271 | 19 ft | 0 kts | 217° |
| 2026-04-20 02:48 | 37.61554 | -122.38270 | 19 ft | 2 kts | 217° |
| 2026-04-20 02:48 | 37.61575 | -122.38253 | 21 ft | 4 kts | 200° |
| 2026-04-20 02:48 | 37.61599 | -122.38249 | 20 ft | 4 kts | 156° |
| 2026-04-20 02:48 | 37.61609 | -122.38259 | 18 ft | 0 kts | 117° |
| 2026-04-20 02:53 | 37.61600 | -122.38236 | 20 ft | 6 kts | 117° |
| 2026-04-20 02:53 | 37.61567 | -122.38157 | 20 ft | 13 kts | 117° |
| 2026-04-20 02:54 | 37.61554 | -122.38049 | 22 ft | 13 kts | 54° |
| 2026-04-20 02:54 | 37.61630 | -122.37988 | 21 ft | 14 kts | 27° |
| 2026-04-20 02:54 | 37.61710 | -122.37929 | 20 ft | 12 kts | 38° |
| 2026-04-20 02:54 | 37.61776 | -122.37853 | 20 ft | 12 kts | 43° |
| 2026-04-20 02:55 | 37.61796 | -122.37762 | 20 ft | 11 kts | 105° |
| 2026-04-20 02:55 | 37.61768 | -122.37664 | 20 ft | 13 kts | 110° |
| 2026-04-20 02:55 | 37.61735 | -122.37556 | 20 ft | 14 kts | 111° |
| 2026-04-20 02:55 | 37.61694 | -122.37451 | 20 ft | 13 kts | 118° |
| 2026-04-20 02:56 | 37.61651 | -122.37346 | 21 ft | 14 kts | 118° |
| 2026-04-20 02:56 | 37.61602 | -122.37231 | 21 ft | 16 kts | 118° |
| 2026-04-20 02:56 | 37.61549 | -122.37104 | 20 ft | 17 kts | 118° |
| 2026-04-20 02:56 | 37.61492 | -122.36970 | 20 ft | 17 kts | 120° |
| 2026-04-20 02:57 | 37.61422 | -122.36859 | 20 ft | 16 kts | 133° |
| 2026-04-20 02:57 | 37.61353 | -122.36746 | 20 ft | 17 kts | 119° |
| 2026-04-20 02:57 | 37.61315 | -122.36658 | 20 ft | 18 kts | 118° |
| 2026-04-20 02:57 | 37.61257 | -122.36515 | 20 ft | 19 kts | 115° |
| 2026-04-20 02:58 | 37.61195 | -122.36372 | 20 ft | 17 kts | 118° |
| 2026-04-20 02:58 | 37.61137 | -122.36236 | 20 ft | 18 kts | 118° |
| 2026-04-20 02:58 | 37.61079 | -122.36096 | 20 ft | 18 kts | 117° |
| 2026-04-20 02:58 | 37.61056 | -122.35964 | 20 ft | 12 kts | 71° |
| 2026-04-20 02:59 | 37.61105 | -122.35901 | 20 ft | 7 kts | 30° |
| 2026-04-20 02:59 | 37.61152 | -122.35884 | 20 ft | 7 kts | 358° |
| 2026-04-20 02:59 | 37.61195 | -122.35911 | 21 ft | 7 kts | 316° |
| 2026-04-20 02:59 | 37.61222 | -122.35962 | 22 ft | 8 kts | 298° |
| 2026-04-20 03:00 | 37.61267 | -122.36067 | 21 ft | 25 kts | 298° |
| 2026-04-20 03:00 | 37.61449 | -122.36503 | 20 ft | 96 kts | 297° |
| 2026-04-20 03:00 | 37.61878 | -122.37521 | 20 ft | 164 kts | 297° |
| 2026-04-20 03:00 | 37.62485 | -122.38957 | 316 ft | 199 kts | 298° |
| 2026-04-20 03:01 | 37.63191 | -122.40527 | 1126 ft | 212 kts | 298° |
| 2026-04-20 03:01 | 37.63985 | -122.42194 | 1842 ft | 231 kts | 297° |
| 2026-04-20 03:01 | 37.64803 | -122.43987 | 2674 ft | 236 kts | 293° |
| 2026-04-20 03:01 | 37.65313 | -122.45209 | 3150 ft | 242 kts | 292° |
| 2026-04-20 03:02 | 37.65613 | -122.45932 | 3389 ft | 245 kts | 292° |
| 2026-04-20 03:02 | 37.66418 | -122.47851 | 3902 ft | 251 kts | 292° |
| 2026-04-20 03:02 | 37.66898 | -122.49964 | 4202 ft | 260 kts | 263° |
| 2026-04-20 03:02 | 37.66463 | -122.52131 | 4845 ft | 254 kts | 234° |
| 2026-04-20 03:03 | 37.65274 | -122.53712 | 5564 ft | 248 kts | 207° |
| 2026-04-20 03:03 | 37.63645 | -122.54336 | 6303 ft | 247 kts | 180° |
| 2026-04-20 03:03 | 37.61943 | -122.53990 | 7001 ft | 251 kts | 163° |
| 2026-04-20 03:03 | 37.60291 | -122.53206 | 7698 ft | 256 kts | 160° |
| 2026-04-20 03:04 | 37.58639 | -122.52340 | 8417 ft | 259 kts | 160° |
| 2026-04-20 03:04 | 37.56961 | -122.51463 | 9110 ft | 263 kts | 160° |
| 2026-04-20 03:04 | 37.55255 | -122.50591 | 9785 ft | 267 kts | 161° |
| 2026-04-20 03:04 | 37.53524 | -122.49722 | 9969 ft | 268 kts | 161° |
| 2026-04-20 03:05 | 37.51789 | -122.48856 | 10006 ft | 267 kts | 161° |
| 2026-04-20 03:05 | 37.50053 | -122.47994 | 10039 ft | 271 kts | 161° |
| 2026-04-20 03:05 | 37.48387 | -122.46703 | 10159 ft | 297 kts | 141° |
| 2026-04-20 03:05 | 37.46896 | -122.44774 | 10331 ft | 319 kts | 137° |
| 2026-04-20 03:06 | 37.45353 | -122.42675 | 10490 ft | 339 kts | 136° |
| 2026-04-20 03:06 | 37.43728 | -122.40438 | 10828 ft | 351 kts | 136° |
| 2026-04-20 03:06 | 37.42072 | -122.38152 | 11400 ft | 355 kts | 136° |
| 2026-04-20 03:06 | 37.40400 | -122.35849 | 12070 ft | 356 kts | 136° |
| 2026-04-20 03:07 | 37.38724 | -122.33552 | 12730 ft | 358 kts | 137° |
| 2026-04-20 03:07 | 37.37028 | -122.31234 | 13358 ft | 361 kts | 137° |
| 2026-04-20 03:07 | 37.35318 | -122.28906 | 13996 ft | 363 kts | 137° |
| 2026-04-20 03:07 | 37.33594 | -122.26564 | 14511 ft | 367 kts | 137° |
| 2026-04-20 03:08 | 37.31849 | -122.24199 | 15027 ft | 371 kts | 137° |
| 2026-04-20 03:08 | 37.30086 | -122.21812 | 15566 ft | 374 kts | 137° |
| 2026-04-20 03:08 | 37.28311 | -122.19410 | 16140 ft | 376 kts | 138° |
| 2026-04-20 03:08 | 37.26522 | -122.16991 | 16657 ft | 379 kts | 138° |
| 2026-04-20 03:09 | 37.24713 | -122.14549 | 17130 ft | 384 kts | 138° |
| 2026-04-20 03:09 | 37.22882 | -122.12079 | 17621 ft | 388 kts | 138° |
| 2026-04-20 03:09 | 37.21038 | -122.09591 | 18134 ft | 390 kts | 138° |
| 2026-04-20 03:09 | 37.19184 | -122.07093 | 18574 ft | 394 kts | 138° |
| 2026-04-20 03:10 | 37.17334 | -122.04602 | 18994 ft | 397 kts | 138° |
| 2026-04-20 03:10 | 37.15444 | -122.02058 | 19410 ft | 400 kts | 138° |
| 2026-04-20 03:10 | 37.13532 | -121.99488 | 19842 ft | 404 kts | 138° |
| 2026-04-20 03:10 | 37.11608 | -121.96903 | 20296 ft | 406 kts | 138° |
| 2026-04-20 03:11 | 37.09670 | -121.94302 | 20723 ft | 409 kts | 138° |
| 2026-04-20 03:11 | 37.07713 | -121.91677 | 21103 ft | 413 kts | 138° |
| 2026-04-20 03:11 | 37.05771 | -121.89074 | 21470 ft | 415 kts | 138° |
| 2026-04-20 03:11 | 37.03794 | -121.86425 | 21860 ft | 418 kts | 138° |
| 2026-04-20 03:12 | 37.01800 | -121.83758 | 22203 ft | 422 kts | 138° |
| 2026-04-20 03:12 | 36.99781 | -121.81059 | 22545 ft | 425 kts | 138° |
| 2026-04-20 03:12 | 36.97752 | -121.78349 | 22877 ft | 428 kts | 138° |
| 2026-04-20 03:12 | 36.95703 | -121.75615 | 23217 ft | 431 kts | 138° |
| 2026-04-20 03:13 | 36.93641 | -121.72865 | 23562 ft | 434 kts | 138° |
| 2026-04-20 03:13 | 36.91563 | -121.70096 | 23838 ft | 437 kts | 138° |
| 2026-04-20 03:13 | 36.89474 | -121.67315 | 24109 ft | 440 kts | 138° |
| 2026-04-20 03:13 | 36.87374 | -121.64521 | 24384 ft | 443 kts | 138° |
| 2026-04-20 03:14 | 36.85258 | -121.61708 | 24667 ft | 445 kts | 138° |
| 2026-04-20 03:14 | 36.83155 | -121.58916 | 24938 ft | 448 kts | 138° |
| 2026-04-20 03:14 | 36.81012 | -121.56074 | 25192 ft | 451 kts | 138° |
| 2026-04-20 03:14 | 36.78855 | -121.53214 | 25433 ft | 454 kts | 138° |
| 2026-04-20 03:15 | 36.76684 | -121.50339 | 25696 ft | 457 kts | 138° |
| 2026-04-20 03:15 | 36.74497 | -121.47443 | 25941 ft | 459 kts | 138° |
| 2026-04-20 03:15 | 36.72301 | -121.44539 | 26227 ft | 461 kts | 138° |
| 2026-04-20 03:15 | 36.70097 | -121.41629 | 26489 ft | 463 kts | 138° |
| 2026-04-20 03:16 | 36.67876 | -121.38699 | 26737 ft | 466 kts | 138° |
| 2026-04-20 03:16 | 36.65643 | -121.35755 | 26964 ft | 469 kts | 138° |
| 2026-04-20 03:16 | 36.63399 | -121.32799 | 27207 ft | 471 kts | 138° |
| 2026-04-20 03:16 | 36.61143 | -121.29830 | 27475 ft | 473 kts | 138° |
| 2026-04-20 03:17 | 36.58874 | -121.26846 | 27715 ft | 475 kts | 138° |
| 2026-04-20 03:17 | 36.56594 | -121.23850 | 27945 ft | 477 kts | 138° |
| 2026-04-20 03:17 | 36.54310 | -121.20850 | 28261 ft | 477 kts | 138° |
| 2026-04-20 03:17 | 36.52030 | -121.17860 | 28620 ft | 476 kts | 138° |
| 2026-04-20 03:18 | 36.49751 | -121.14872 | 28950 ft | 477 kts | 138° |
| 2026-04-20 03:18 | 36.47460 | -121.11872 | 29296 ft | 477 kts | 138° |
| 2026-04-20 03:18 | 36.45178 | -121.08886 | 29657 ft | 477 kts | 138° |
| 2026-04-20 03:18 | 36.42893 | -121.05899 | 30027 ft | 476 kts | 137° |
| 2026-04-20 03:19 | 36.40660 | -121.02847 | 30337 ft | 477 kts | 136° |
| 2026-04-20 03:19 | 36.38488 | -120.99728 | 30641 ft | 478 kts | 135° |
| 2026-04-20 03:19 | 36.36368 | -120.96625 | 30926 ft | 478 kts | 134° |
| 2026-04-20 03:19 | 36.34216 | -120.93470 | 31210 ft | 478 kts | 135° |
| 2026-04-20 03:20 | 36.32061 | -120.90328 | 31470 ft | 479 kts | 135° |
| 2026-04-20 03:20 | 36.29892 | -120.87188 | 31741 ft | 479 kts | 135° |
| 2026-04-20 03:20 | 36.27715 | -120.84056 | 32024 ft | 479 kts | 135° |
| 2026-04-20 03:20 | 36.25534 | -120.80931 | 32325 ft | 478 kts | 135° |
| 2026-04-20 03:21 | 36.23350 | -120.77808 | 32579 ft | 479 kts | 135° |
| 2026-04-20 03:21 | 36.21170 | -120.74696 | 32828 ft | 479 kts | 135° |
| 2026-04-20 03:21 | 36.18983 | -120.71577 | 32960 ft | 480 kts | 135° |
| 2026-04-20 03:22 | 36.14596 | -120.65325 | 32953 ft | 480 kts | 135° |
| 2026-04-20 03:22 | 36.10265 | -120.59160 | 32954 ft | 476 kts | 135° |
| 2026-04-20 03:23 | 36.05928 | -120.52998 | 32946 ft | 474 kts | 135° |
| 2026-04-20 03:23 | 36.01599 | -120.46862 | 32951 ft | 474 kts | 135° |
| 2026-04-20 03:24 | 35.97259 | -120.40722 | 32962 ft | 475 kts | 135° |
| 2026-04-20 03:24 | 35.92897 | -120.34558 | 32955 ft | 478 kts | 135° |
| 2026-04-20 03:25 | 35.88493 | -120.28366 | 32940 ft | 480 kts | 137° |
| 2026-04-20 03:25 | 35.83411 | -120.23267 | 32941 ft | 471 kts | 153° |
| 2026-04-20 03:26 | 35.77748 | -120.19129 | 32936 ft | 473 kts | 154° |
| 2026-04-20 03:26 | 35.72091 | -120.14942 | 32943 ft | 474 kts | 153° |
| 2026-04-20 03:27 | 35.66450 | -120.10693 | 32928 ft | 475 kts | 153° |
| 2026-04-20 03:27 | 35.60850 | -120.06464 | 32929 ft | 475 kts | 152° |
| 2026-04-20 03:28 | 35.55212 | -120.02205 | 32928 ft | 474 kts | 152° |
| 2026-04-20 03:28 | 35.46776 | -119.95850 | 32929 ft | 473 kts | 152° |
| 2026-04-20 03:29 | 35.41162 | -119.91631 | 32918 ft | 473 kts | 152° |
| 2026-04-20 03:29 | 35.35586 | -119.87445 | 32928 ft | 473 kts | 152° |
| 2026-04-20 03:30 | 35.29966 | -119.83234 | 32920 ft | 473 kts | 152° |
| 2026-04-20 03:30 | 35.24563 | -119.78546 | 32920 ft | 477 kts | 146° |
| 2026-04-20 03:31 | 35.19320 | -119.73557 | 32918 ft | 477 kts | 145° |
| 2026-04-20 03:31 | 35.14062 | -119.68581 | 32907 ft | 478 kts | 146° |
| 2026-04-20 03:32 | 35.08843 | -119.63703 | 32885 ft | 458 kts | 146° |
| 2026-04-20 03:32 | 35.06362 | -119.61391 | 32895 ft | 441 kts | 146° |
| 2026-04-20 03:32 | 35.03994 | -119.59188 | 32888 ft | 425 kts | 146° |
| 2026-04-20 03:33 | 35.01684 | -119.57042 | 32896 ft | 409 kts | 146° |
| 2026-04-20 03:33 | 34.99454 | -119.54974 | 32898 ft | 397 kts | 147° |
| 2026-04-20 03:33 | 34.95025 | -119.50877 | 32943 ft | 405 kts | 147° |
| 2026-04-20 03:34 | 34.90473 | -119.46674 | 32942 ft | 416 kts | 147° |
| 2026-04-20 03:34 | 34.85777 | -119.42466 | 32941 ft | 420 kts | 147° |
| 2026-04-20 03:35 | 34.81047 | -119.38253 | 32483 ft | 423 kts | 147° |
| 2026-04-20 03:35 | 34.78655 | -119.36118 | 31651 ft | 430 kts | 147° |
| 2026-04-20 03:35 | 34.76209 | -119.33936 | 30477 ft | 444 kts | 146° |
| 2026-04-20 03:36 | 34.73673 | -119.31681 | 29407 ft | 455 kts | 147° |
| 2026-04-20 03:36 | 34.71120 | -119.29445 | 28858 ft | 450 kts | 147° |
| 2026-04-20 03:36 | 34.68596 | -119.27243 | 28434 ft | 442 kts | 147° |
| 2026-04-20 03:36 | 34.66117 | -119.25082 | 27965 ft | 436 kts | 147° |
| 2026-04-20 03:37 | 34.63662 | -119.22948 | 27427 ft | 433 kts | 147° |
| 2026-04-20 03:37 | 34.61214 | -119.20838 | 26896 ft | 429 kts | 147° |
| 2026-04-20 03:37 | 34.58819 | -119.18777 | 26406 ft | 425 kts | 147° |
| 2026-04-20 03:37 | 34.56415 | -119.16708 | 25907 ft | 422 kts | 147° |
| 2026-04-20 03:38 | 34.54039 | -119.14631 | 25424 ft | 418 kts | 146° |
| 2026-04-20 03:38 | 34.51698 | -119.12550 | 24967 ft | 415 kts | 146° |
| 2026-04-20 03:38 | 34.49380 | -119.10485 | 24514 ft | 412 kts | 146° |
| 2026-04-20 03:38 | 34.47078 | -119.08442 | 24038 ft | 408 kts | 146° |
| 2026-04-20 03:39 | 34.44792 | -119.06419 | 23613 ft | 405 kts | 146° |
| 2026-04-20 03:39 | 34.42512 | -119.04421 | 23126 ft | 401 kts | 147° |
| 2026-04-20 03:39 | 34.40301 | -119.02508 | 22991 ft | 389 kts | 147° |
| 2026-04-20 03:39 | 34.38094 | -119.00603 | 22958 ft | 394 kts | 147° |
| 2026-04-20 03:40 | 34.35812 | -118.98635 | 22910 ft | 401 kts | 147° |
| 2026-04-20 03:40 | 34.33737 | -118.96836 | 22853 ft | 398 kts | 146° |
| 2026-04-20 03:40 | 34.31441 | -118.94765 | 22518 ft | 392 kts | 145° |
| 2026-04-20 03:40 | 34.29278 | -118.92784 | 22021 ft | 390 kts | 145° |
| 2026-04-20 03:41 | 34.27113 | -118.90808 | 21462 ft | 389 kts | 145° |
| 2026-04-20 03:41 | 34.24953 | -118.88843 | 20966 ft | 386 kts | 145° |
| 2026-04-20 03:41 | 34.22824 | -118.86890 | 20531 ft | 382 kts | 145° |
| 2026-04-20 03:41 | 34.20716 | -118.84949 | 20169 ft | 377 kts | 145° |
| 2026-04-20 03:42 | 34.18663 | -118.83060 | 20075 ft | 363 kts | 145° |
| 2026-04-20 03:42 | 34.16690 | -118.81246 | 19988 ft | 351 kts | 144° |
| 2026-04-20 03:42 | 34.14843 | -118.79391 | 19879 ft | 341 kts | 141° |
| 2026-04-20 03:42 | 34.13105 | -118.77483 | 19612 ft | 335 kts | 140° |
| 2026-04-20 03:43 | 34.11416 | -118.75597 | 19224 ft | 334 kts | 140° |
| 2026-04-20 03:43 | 34.09704 | -118.73699 | 18856 ft | 332 kts | 140° |
| 2026-04-20 03:43 | 34.07995 | -118.71828 | 18515 ft | 330 kts | 141° |
| 2026-04-20 03:43 | 34.06297 | -118.69982 | 18160 ft | 327 kts | 140° |
| 2026-04-20 03:44 | 34.04612 | -118.68151 | 17782 ft | 325 kts | 139° |
| 2026-04-20 03:44 | 34.03255 | -118.66002 | 17552 ft | 322 kts | 118° |
| 2026-04-20 03:44 | 34.02623 | -118.63439 | 17348 ft | 318 kts | 100° |
| 2026-04-20 03:44 | 34.02379 | -118.60792 | 17017 ft | 316 kts | 98° |
| 2026-04-20 03:45 | 34.02161 | -118.58160 | 16625 ft | 316 kts | 99° |
| 2026-04-20 03:45 | 34.01932 | -118.55540 | 16279 ft | 313 kts | 99° |
| 2026-04-20 03:45 | 34.01701 | -118.52970 | 15988 ft | 310 kts | 99° |
| 2026-04-20 03:45 | 34.01464 | -118.50420 | 15856 ft | 300 kts | 99° |
| 2026-04-20 03:46 | 34.01235 | -118.47969 | 15775 ft | 289 kts | 99° |
| 2026-04-20 03:46 | 34.01055 | -118.45604 | 15668 ft | 280 kts | 91° |
| 2026-04-20 03:46 | 34.01195 | -118.44028 | 15509 ft | 280 kts | 82° |
| 2026-04-20 03:46 | 34.01606 | -118.41747 | 15215 ft | 278 kts | 80° |
| 2026-04-20 03:47 | 34.02037 | -118.39501 | 14888 ft | 278 kts | 81° |
| 2026-04-20 03:47 | 34.02320 | -118.37211 | 14573 ft | 275 kts | 84° |
| 2026-04-20 03:47 | 34.02679 | -118.34953 | 14281 ft | 274 kts | 82° |
| 2026-04-20 03:47 | 34.03074 | -118.32709 | 13984 ft | 273 kts | 82° |
| 2026-04-20 03:48 | 34.03475 | -118.30478 | 13692 ft | 271 kts | 82° |
| 2026-04-20 03:48 | 34.03880 | -118.28259 | 13369 ft | 270 kts | 81° |
| 2026-04-20 03:48 | 34.04283 | -118.26057 | 13050 ft | 268 kts | 81° |
| 2026-04-20 03:48 | 34.04684 | -118.23866 | 12734 ft | 267 kts | 81° |
| 2026-04-20 03:49 | 34.05089 | -118.21646 | 12131 ft | 277 kts | 81° |
| 2026-04-20 03:49 | 34.05501 | -118.19353 | 11621 ft | 283 kts | 81° |
| 2026-04-20 03:49 | 34.05919 | -118.17007 | 11096 ft | 290 kts | 81° |
| 2026-04-20 03:49 | 34.06343 | -118.14603 | 10582 ft | 296 kts | 81° |
| 2026-04-20 03:50 | 34.06767 | -118.12179 | 10082 ft | 301 kts | 81° |
| 2026-04-20 03:50 | 34.07199 | -118.09683 | 9544 ft | 307 kts | 81° |
| 2026-04-20 03:50 | 34.07632 | -118.07157 | 9067 ft | 308 kts | 81° |
| 2026-04-20 03:50 | 34.08059 | -118.04658 | 8947 ft | 297 kts | 81° |
| 2026-04-20 03:51 | 34.08473 | -118.02254 | 8852 ft | 286 kts | 81° |
| 2026-04-20 03:51 | 34.08871 | -117.99954 | 8758 ft | 274 kts | 81° |
| 2026-04-20 03:51 | 34.09253 | -117.97764 | 8636 ft | 259 kts | 81° |
| 2026-04-20 03:51 | 34.09618 | -117.95694 | 8427 ft | 248 kts | 81° |
| 2026-04-20 03:52 | 34.09977 | -117.93653 | 8032 ft | 246 kts | 81° |
| 2026-04-20 03:52 | 34.10069 | -117.91642 | 7634 ft | 237 kts | 107° |
| 2026-04-20 03:52 | 34.09334 | -117.89934 | 7238 ft | 229 kts | 137° |
| 2026-04-20 03:52 | 34.07997 | -117.88991 | 6787 ft | 228 kts | 165° |
| 2026-04-20 03:53 | 34.06439 | -117.88620 | 6345 ft | 230 kts | 171° |
| 2026-04-20 03:53 | 34.04848 | -117.88328 | 5846 ft | 233 kts | 171° |
| 2026-04-20 03:53 | 34.03227 | -117.88377 | 5326 ft | 237 kts | 197° |
| 2026-04-20 03:53 | 34.01885 | -117.89444 | 5081 ft | 232 kts | 230° |
| 2026-04-20 03:54 | 34.01237 | -117.91240 | 5022 ft | 239 kts | 262° |
| 2026-04-20 03:54 | 34.01442 | -117.93212 | 4991 ft | 240 kts | 293° |
| 2026-04-20 03:54 | 34.02326 | -117.94903 | 5003 ft | 239 kts | 296° |
| 2026-04-20 03:54 | 34.02709 | -117.96809 | 4997 ft | 234 kts | 262° |
| 2026-04-20 03:55 | 34.02210 | -117.98643 | 4999 ft | 232 kts | 236° |
| 2026-04-20 03:55 | 34.01307 | -118.00244 | 4998 ft | 231 kts | 232° |
| 2026-04-20 03:55 | 34.00359 | -118.01814 | 4997 ft | 231 kts | 231° |
| 2026-04-20 03:55 | 33.99400 | -118.03400 | 4779 ft | 237 kts | 232° |
| 2026-04-20 03:56 | 33.98425 | -118.05008 | 4548 ft | 237 kts | 232° |
| 2026-04-20 03:56 | 33.97453 | -118.06605 | 4281 ft | 235 kts | 231° |
| 2026-04-20 03:56 | 33.96660 | -118.08310 | 3998 ft | 236 kts | 253° |
| 2026-04-20 03:56 | 33.96394 | -118.10216 | 3782 ft | 233 kts | 261° |
| 2026-04-20 03:57 | 33.96219 | -118.12145 | 3631 ft | 230 kts | 262° |
| 2026-04-20 03:57 | 33.96056 | -118.14061 | 3585 ft | 230 kts | 262° |
| 2026-04-20 03:57 | 33.95891 | -118.15989 | 3396 ft | 236 kts | 263° |
| 2026-04-20 03:57 | 33.95718 | -118.17947 | 3194 ft | 232 kts | 263° |
| 2026-04-20 03:58 | 33.95542 | -118.19862 | 3026 ft | 225 kts | 262° |
| 2026-04-20 03:58 | 33.95375 | -118.21677 | 2830 ft | 211 kts | 262° |
| 2026-04-20 03:58 | 33.95214 | -118.23389 | 2570 ft | 200 kts | 263° |
| 2026-04-20 03:58 | 33.95058 | -118.24995 | 2312 ft | 185 kts | 263° |
| 2026-04-20 03:59 | 33.94910 | -118.26475 | 2078 ft | 173 kts | 263° |
| 2026-04-20 03:59 | 33.94768 | -118.27852 | 1847 ft | 158 kts | 262° |
| 2026-04-20 03:59 | 33.94635 | -118.29104 | 1668 ft | 154 kts | 262° |
| 2026-04-20 03:59 | 33.94494 | -118.30387 | 1466 ft | 155 kts | 262° |
| 2026-04-20 04:00 | 33.94361 | -118.31673 | 1299 ft | 153 kts | 263° |
| 2026-04-20 04:00 | 33.94254 | -118.32948 | 1137 ft | 153 kts | 264° |
| 2026-04-20 04:00 | 33.94144 | -118.34230 | 949 ft | 154 kts | 262° |
| 2026-04-20 04:00 | 33.94012 | -118.35489 | 716 ft | 153 kts | 262° |
| 2026-04-20 04:01 | 33.93886 | -118.36756 | 438 ft | 151 kts | 263° |
| 2026-04-20 04:01 | 33.93766 | -118.37999 | 240 ft | 147 kts | 261° |
| 2026-04-20 04:01 | 33.93644 | -118.39215 | 130 ft | 146 kts | 261° |
| 2026-04-20 04:01 | 33.93516 | -118.40403 | 125 ft | 132 kts | 263° |
| 2026-04-20 04:02 | 33.93438 | -118.41167 | 123 ft | 49 kts | 263° |
| 2026-04-20 04:02 | 33.93409 | -118.41467 | 125 ft | 33 kts | 263° |
| 2026-04-20 04:02 | 33.93381 | -118.41727 | 124 ft | 30 kts | 263° |
| 2026-04-20 04:02 | 33.93412 | -118.41889 | 122 ft | 13 kts | 337° |
| 2026-04-20 04:03 | 33.93495 | -118.41907 | 123 ft | 12 kts | 352° |
| 2026-04-20 04:03 | 33.93576 | -118.41920 | 123 ft | 12 kts | 350° |
| 2026-04-20 04:03 | 33.93647 | -118.41934 | 122 ft | 9 kts | 351° |
| 2026-04-20 04:03 | 33.93649 | -118.41935 | 122 ft | 0 kts | 351° |
| 2026-04-20 04:04 | 33.93654 | -118.41935 | 121 ft | 3 kts | 351° |
| 2026-04-20 04:04 | 33.93692 | -118.41941 | 122 ft | 9 kts | 354° |
| 2026-04-20 04:04 | 33.93759 | -118.41915 | 122 ft | 12 kts | 55° |
| 2026-04-20 04:05 | 33.93777 | -118.41803 | 125 ft | 16 kts | 83° |
| 2026-04-20 04:05 | 33.93792 | -118.41654 | 125 ft | 20 kts | 83° |
| 2026-04-20 04:05 | 33.93806 | -118.41524 | 124 ft | 10 kts | 83° |
| 2026-04-20 04:05 | 33.93815 | -118.41433 | 125 ft | 12 kts | 83° |
| 2026-04-20 04:06 | 33.93825 | -118.41333 | 120 ft | 13 kts | 83° |
| 2026-04-20 04:06 | 33.93881 | -118.41266 | 122 ft | 13 kts | 359° |
| 2026-04-20 04:06 | 33.93969 | -118.41277 | 124 ft | 13 kts | 354° |
| 2026-04-20 04:06 | 33.94065 | -118.41290 | 121 ft | 14 kts | 353° |
| 2026-04-20 04:07 | 33.94159 | -118.41305 | 123 ft | 14 kts | 353° |
| 2026-04-20 04:07 | 33.94259 | -118.41318 | 122 ft | 15 kts | 353° |
| 2026-04-20 04:07 | 33.94363 | -118.41338 | 123 ft | 16 kts | 351° |
| 2026-04-20 04:07 | 33.94468 | -118.41341 | 122 ft | 14 kts | 22° |
| 2026-04-20 04:08 | 33.94507 | -118.41243 | 123 ft | 14 kts | 72° |
| 2026-04-20 04:08 | 33.94523 | -118.41153 | 125 ft | 1 kts | 88° |